TimeFJT,TemperatureF,Dew PointF,Humidity,Sea Level PressureIn,VisibilityMPH,Wind Direction,Wind SpeedMPH,Gust SpeedMPH,PrecipitationIn,Events,Conditions,WindDirDegrees,DateUTC
12:00 AM,79,74,79,29.73,12,Calm,Calm,,,,Partly Cloudy,,2013-01-26 12:00:00
12:00 AM,78.8,73.4,83,29.71,24.9,Calm,Calm,-,N/A,,Mostly Cloudy,0,2013-01-26 12:00:00
1:00 AM,78.8,73.4,83,29.71,24.9,Calm,Calm,-,N/A,,Mostly Cloudy,0,2013-01-26 13:00:00
2:00 AM,77.0,73.4,89,29.68,24.9,East,3.5,-,N/A,,Mostly Cloudy,80,2013-01-26 14:00:00
3:00 AM,76,74,91,29.65,12,SSE,3.5,,,Rain,Light Rain Showers,150,2013-01-26 15:00:00
3:00 AM,75.2,73.4,94,29.68,24.9,SSE,3.5,-,N/A,,Mostly Cloudy,150,2013-01-26 15:00:00
4:00 AM,75.2,73.4,94,29.65,24.9,Calm,Calm,-,N/A,,Mostly Cloudy,0,2013-01-26 16:00:00
5:00 AM,77.0,73.4,89,29.65,24.9,Calm,Calm,-,N/A,,Mostly Cloudy,0,2013-01-26 17:00:00
6:00 AM,75,74,94,29.69,31,East,3.5,,,,Partly Cloudy,100,2013-01-26 18:00:00
6:00 AM,75.2,73.4,94,29.68,31.1,East,3.5,-,N/A,,Mostly Cloudy,100,2013-01-26 18:00:00
7:00 AM,75.2,73.4,94,29.68,31.1,East,5.8,-,N/A,,Mostly Cloudy,90,2013-01-26 19:00:00
8:00 AM,78.8,73.4,83,29.71,28.0,East,4.6,-,N/A,,Mostly Cloudy,90,2013-01-26 20:00:00
9:00 AM,80,74,76,29.71,12,East,4.6,,,Rain,Light Rain,90,2013-01-26 21:00:00
9:00 AM,78.8,73.4,83,29.68,28.0,East,4.6,-,N/A,Rain,Light Rain,90,2013-01-26 21:00:00
10:00 AM,78.8,73.4,83,29.68,28.0,NE,11.5,-,N/A,,Mostly Cloudy,40,2013-01-26 22:00:00
11:00 AM,86.0,73.4,66,29.68,28.0,West,5.8,-,N/A,,Mostly Cloudy,270,2013-01-26 23:00:00
12:00 PM,86,74,60,29.69,31,West,9.2,,,,Partly Cloudy,260,2013-01-27 00:00:00
12:00 PM,86.0,73.4,66,29.68,31.1,West,9.2,-,N/A,,Mostly Cloudy,260,2013-01-27 00:00:00
1:00 PM,86.0,73.4,66,29.65,31.1,West,11.5,-,N/A,,Mostly Cloudy,280,2013-01-27 01:00:00
2:00 PM,86.0,75.2,70,29.65,31.1,West,11.5,-,N/A,,Mostly Cloudy,260,2013-01-27 02:00:00
3:00 PM,86,75,62,29.64,31,West,8.1,,,,Partly Cloudy,270,2013-01-27 03:00:00
3:00 PM,86.0,75.2,70,29.62,31.1,West,8.1,-,N/A,,Scattered Clouds,270,2013-01-27 03:00:00
4:00 PM,84.2,75.2,74,29.62,31.1,West,8.1,-,N/A,,Scattered Clouds,270,2013-01-27 04:00:00
5:00 PM,84.2,75.2,74,29.62,24.9,SW,5.8,-,N/A,Rain,Light Rain,230,2013-01-27 05:00:00
6:00 PM,82,74,72,29.62,31,SSW,8.1,,,Rain,Light Rain,200,2013-01-27 06:00:00
6:00 PM,82.4,75.2,79,29.62,31.1,SSW,8.1,-,N/A,,Mostly Cloudy,200,2013-01-27 06:00:00
7:00 PM,82.4,73.4,74,29.62,28.0,South,8.1,-,N/A,,Scattered Clouds,190,2013-01-27 07:00:00
8:00 PM,80.6,73.4,79,29.65,24.9,South,6.9,-,N/A,,Scattered Clouds,170,2013-01-27 08:00:00
9:00 PM,79,73,77,29.67,12,Calm,Calm,,,,Partly Cloudy,,2013-01-27 09:00:00
9:00 PM,78.8,73.4,83,29.65,24.9,Calm,Calm,-,N/A,,Scattered Clouds,0,2013-01-27 09:00:00
10:00 PM,78.8,73.4,83,29.65,24.9,Calm,Calm,-,N/A,,Partly Cloudy,0,2013-01-27 10:00:00
11:00 PM,77.0,73.4,89,29.68,24.9,South,5.8,-,N/A,,Partly Cloudy,180,2013-01-27 11:00:00